sensor_id;sensor_type;location;lat;lon;timestamp;pressure;altitude;pressure_sealevel;temperature;humidity
71770;BME280;66386;52.122;5.420;2023-04-26T00:01:27;102067.84;;;3.49;80.57
71770;BME280;66386;52.122;5.420;2023-04-26T00:03:54;102071.19;;;3.46;80.77
71770;BME280;66386;52.122;5.420;2023-04-26T00:06:22;102077.91;;;3.44;80.58
71770;BME280;66386;52.122;5.420;2023-04-26T00:08:48;102068.59;;;3.42;80.68
71770;BME280;66386;52.122;5.420;2023-04-26T00:11:15;102068.59;;;3.42;80.73
71770;BME280;66386;52.122;5.420;2023-04-26T00:13:42;102076.16;;;3.39;80.65
71770;BME280;66386;52.122;5.420;2023-04-26T00:16:08;102069.34;;;3.35;80.73
71770;BME280;66386;52.122;5.420;2023-04-26T00:18:35;102069.25;;;3.30;80.79
71770;BME280;66386;52.122;5.420;2023-04-26T00:21:01;102077.66;;;3.23;80.66
71770;BME280;66386;52.122;5.420;2023-04-26T00:23:27;102065.72;;;3.17;80.74
71770;BME280;66386;52.122;5.420;2023-04-26T00:25:55;102063.94;;;3.10;80.82
71770;BME280;66386;52.122;5.420;2023-04-26T00:28:22;102063.88;;;3.07;81.06
71770;BME280;66386;52.122;5.420;2023-04-26T00:30:49;102059.56;;;3.01;81.21
71770;BME280;66386;52.122;5.420;2023-04-26T00:33:16;102062.88;;;2.95;81.25
71770;BME280;66386;52.122;5.420;2023-04-26T00:35:42;102059.34;;;2.87;81.52
71770;BME280;66386;52.122;5.420;2023-04-26T00:38:09;102061.00;;;2.84;81.41
71770;BME280;66386;52.122;5.420;2023-04-26T00:40:36;102063.50;;;2.81;81.65
71770;BME280;66386;52.122;5.420;2023-04-26T00:43:02;102065.13;;;2.77;81.63
71770;BME280;66386;52.122;5.420;2023-04-26T00:45:29;102057.44;;;2.71;81.76
71770;BME280;66386;52.122;5.420;2023-04-26T00:48:00;102059.91;;;2.68;82.08
71770;BME280;66386;52.122;5.420;2023-04-26T00:50:27;102055.59;;;2.62;82.04
71770;BME280;66386;52.122;5.420;2023-04-26T00:52:56;102058.91;;;2.58;82.06
71770;BME280;66386;52.122;5.420;2023-04-26T00:55:22;102054.59;;;2.52;82.23
71770;BME280;66386;52.122;5.420;2023-04-26T00:57:51;102049.44;;;2.48;82.48
71770;BME280;66386;52.122;5.420;2023-04-26T01:00:18;102051.06;;;2.42;82.54
71770;BME280;66386;52.122;5.420;2023-04-26T01:02:44;102051.84;;;2.38;82.73
71770;BME280;66386;52.122;5.420;2023-04-26T01:05:11;102052.63;;;2.34;82.80
71770;BME280;66386;52.122;5.420;2023-04-26T01:07:38;102052.53;;;2.30;82.95
71770;BME280;66386;52.122;5.420;2023-04-26T01:10:05;102058.34;;;2.24;83.31
71770;BME280;66386;52.122;5.420;2023-04-26T01:12:32;102059.94;;;2.19;83.27
71770;BME280;66386;52.122;5.420;2023-04-26T01:14:58;102064.94;;;2.14;83.32
71770;BME280;66386;52.122;5.420;2023-04-26T01:17:25;102065.72;;;2.12;83.64
71770;BME280;66386;52.122;5.420;2023-04-26T01:19:52;102059.78;;;2.09;83.41
71770;BME280;66386;52.122;5.420;2023-04-26T01:22:19;102069.88;;;2.06;83.66
71770;BME280;66386;52.122;5.420;2023-04-26T01:24:47;102071.56;;;2.06;83.66
71770;BME280;66386;52.122;5.420;2023-04-26T01:27:16;102067.28;;;2.03;83.78
71770;BME280;66386;52.122;5.420;2023-04-26T01:29:42;102069.78;;;2.00;83.45
71770;BME280;66386;52.122;5.420;2023-04-26T01:32:09;102071.38;;;1.95;83.18
71770;BME280;66386;52.122;5.420;2023-04-26T01:34:37;102065.41;;;1.93;83.60
71770;BME280;66386;52.122;5.420;2023-04-26T01:37:03;102068.75;;;1.90;83.61
71770;BME280;66386;52.122;5.420;2023-04-26T01:39:29;102072.09;;;1.89;83.84
71770;BME280;66386;52.122;5.420;2023-04-26T01:41:56;102068.69;;;1.87;83.81
71770;BME280;66386;52.122;5.420;2023-04-26T01:44:23;102070.28;;;1.84;84.13
71770;BME280;66386;52.122;5.420;2023-04-26T01:46:50;102070.25;;;1.82;83.90
71770;BME280;66386;52.122;5.420;2023-04-26T01:49:16;102066.91;;;1.83;83.96
71770;BME280;66386;52.122;5.420;2023-04-26T01:51:43;102065.16;;;1.81;84.13
71770;BME280;66386;52.122;5.420;2023-04-26T01:54:09;102060.84;;;1.77;84.04
71770;BME280;66386;52.122;5.420;2023-04-26T01:56:36;102060.81;;;1.73;84.20
71770;BME280;66386;52.122;5.420;2023-04-26T01:59:03;102056.56;;;1.71;84.28
71770;BME280;66386;52.122;5.420;2023-04-26T02:01:29;102051.41;;;1.68;84.49
71770;BME280;66386;52.122;5.420;2023-04-26T02:03:56;102058.97;;;1.66;84.44
71770;BME280;66386;52.122;5.420;2023-04-26T02:06:23;102058.94;;;1.65;84.54
71770;BME280;66386;52.122;5.420;2023-04-26T02:08:50;102058.03;;;1.61;84.38
71770;BME280;66386;52.122;5.420;2023-04-26T02:11:17;102057.94;;;1.55;84.43
71770;BME280;66386;52.122;5.420;2023-04-26T02:13:44;102063.75;;;1.51;84.73
71770;BME280;66386;52.122;5.420;2023-04-26T02:16:10;102060.31;;;1.49;84.67
71770;BME280;66386;52.122;5.420;2023-04-26T02:18:37;102067.00;;;1.45;84.71
71770;BME280;66386;52.122;5.420;2023-04-26T02:21:07;102066.94;;;1.42;84.90
71770;BME280;66386;52.122;5.420;2023-04-26T02:23:34;102061.84;;;1.41;84.97
71770;BME280;66386;52.122;5.420;2023-04-26T02:26:00;102057.59;;;1.39;84.93
71770;BME280;66386;52.122;5.420;2023-04-26T02:28:27;102062.56;;;1.35;85.10
71770;BME280;66386;52.122;5.420;2023-04-26T02:30:53;102063.31;;;1.31;85.14
71770;BME280;66386;52.122;5.420;2023-04-26T02:33:22;102058.97;;;1.25;85.26
71770;BME280;66386;52.122;5.420;2023-04-26T02:35:48;102062.31;;;1.24;85.45
71770;BME280;66386;52.122;5.420;2023-04-26T02:38:16;102071.59;;;1.22;85.25
71770;BME280;66386;52.122;5.420;2023-04-26T02:40:42;102062.19;;;1.18;85.30
71770;BME280;66386;52.122;5.420;2023-04-26T02:43:09;102062.16;;;1.16;85.42
71770;BME280;66386;52.122;5.420;2023-04-26T02:45:42;102062.94;;;1.14;85.29
71770;BME280;66386;52.122;5.420;2023-04-26T02:48:08;102061.22;;;1.11;85.34
71770;BME280;66386;52.122;5.420;2023-04-26T02:50:35;102064.50;;;1.07;85.33
71770;BME280;66386;52.122;5.420;2023-04-26T02:53:01;102055.13;;;1.03;85.42
71770;BME280;66386;52.122;5.420;2023-04-26T02:55:28;102056.75;;;0.99;85.46
71770;BME280;66386;52.122;5.420;2023-04-26T02:57:55;102058.41;;;0.99;85.49
71770;BME280;66386;52.122;5.420;2023-04-26T03:00:21;102055.03;;;0.98;85.51
71770;BME280;66386;52.122;5.420;2023-04-26T03:02:48;102058.31;;;0.94;85.52
71770;BME280;66386;52.122;5.420;2023-04-26T03:05:15;102055.72;;;0.91;85.70
71770;BME280;66386;52.122;5.420;2023-04-26T03:07:41;102043.00;;;0.88;85.62
71770;BME280;66386;52.122;5.420;2023-04-26T03:10:08;102049.69;;;0.86;85.60
71770;BME280;66386;52.122;5.420;2023-04-26T03:12:35;102052.19;;;0.84;85.72
71770;BME280;66386;52.122;5.420;2023-04-26T03:15:02;102050.44;;;0.82;85.42
71770;BME280;66386;52.122;5.420;2023-04-26T03:17:29;102051.19;;;0.78;85.80
71770;BME280;66386;52.122;5.420;2023-04-26T03:19:55;102058.75;;;0.76;85.88
71770;BME280;66386;52.122;5.420;2023-04-26T03:22:22;102049.41;;;0.74;85.71
71770;BME280;66386;52.122;5.420;2023-04-26T03:24:48;102051.91;;;0.72;86.13
71770;BME280;66386;52.122;5.420;2023-04-26T03:27:15;102051.00;;;0.70;85.98
71770;BME280;66386;52.122;5.420;2023-04-26T03:29:41;102048.41;;;0.67;86.10
71770;BME280;66386;52.122;5.420;2023-04-26T03:32:09;102052.63;;;0.66;86.11
71770;BME280;66386;52.122;5.420;2023-04-26T03:34:38;102051.63;;;0.61;86.18
71770;BME280;66386;52.122;5.420;2023-04-26T03:37:04;102048.19;;;0.58;86.32
71770;BME280;66386;52.122;5.420;2023-04-26T03:39:30;102053.28;;;0.59;86.32
71770;BME280;66386;52.122;5.420;2023-04-26T03:41:57;102043.94;;;0.57;86.34
71770;BME280;66386;52.122;5.420;2023-04-26T03:44:23;102048.16;;;0.56;86.52
71770;BME280;66386;52.122;5.420;2023-04-26T03:46:50;102050.66;;;0.55;86.62
71770;BME280;66386;52.122;5.420;2023-04-26T03:49:18;102042.97;;;0.50;86.53
71770;BME280;66386;52.122;5.420;2023-04-26T03:51:44;102050.53;;;0.50;86.50
71770;BME280;66386;52.122;5.420;2023-04-26T03:54:11;102048.81;;;0.49;86.72
71770;BME280;66386;52.122;5.420;2023-04-26T03:56:37;102043.72;;;0.47;86.36
71770;BME280;66386;52.122;5.420;2023-04-26T03:59:05;102050.47;;;0.47;86.53
71770;BME280;66386;52.122;5.420;2023-04-26T04:01:32;102049.59;;;0.46;86.62
71770;BME280;66386;52.122;5.420;2023-04-26T04:03:58;102049.59;;;0.46;86.63
71770;BME280;66386;52.122;5.420;2023-04-26T04:06:25;102047.03;;;0.45;86.57
71770;BME280;66386;52.122;5.420;2023-04-26T04:08:52;102052.97;;;0.45;86.72
71770;BME280;66386;52.122;5.420;2023-04-26T04:11:18;102052.97;;;0.45;86.53
71770;BME280;66386;52.122;5.420;2023-04-26T04:13:45;102053.75;;;0.43;86.77
71770;BME280;66386;52.122;5.420;2023-04-26T04:16:11;102046.97;;;0.42;86.73
71770;BME280;66386;52.122;5.420;2023-04-26T04:18:38;102049.47;;;0.40;86.77
71770;BME280;66386;52.122;5.420;2023-04-26T04:21:04;102049.38;;;0.37;86.83
71770;BME280;66386;52.122;5.420;2023-04-26T04:23:31;102045.16;;;0.38;86.94
71770;BME280;66386;52.122;5.420;2023-04-26T04:25:58;102047.72;;;0.39;87.10
71770;BME280;66386;52.122;5.420;2023-04-26T04:28:24;102048.59;;;0.40;87.13
71770;BME280;66386;52.122;5.420;2023-04-26T04:30:51;102045.28;;;0.42;87.25
71770;BME280;66386;52.122;5.420;2023-04-26T04:33:17;102045.31;;;0.44;87.06
71770;BME280;66386;52.122;5.420;2023-04-26T04:35:44;102046.19;;;0.44;87.11
71770;BME280;66386;52.122;5.420;2023-04-26T04:38:10;102042.03;;;0.48;87.27
71770;BME280;66386;52.122;5.420;2023-04-26T04:40:37;102049.66;;;0.49;87.28
71770;BME280;66386;52.122;5.420;2023-04-26T04:43:03;102049.75;;;0.52;87.42
71770;BME280;66386;52.122;5.420;2023-04-26T04:45:30;102046.44;;;0.55;87.49
71770;BME280;66386;52.122;5.420;2023-04-26T04:47:56;102037.22;;;0.57;87.43
71770;BME280;66386;52.122;5.420;2023-04-26T04:50:22;102045.69;;;0.59;87.50
71770;BME280;66386;52.122;5.420;2023-04-26T04:52:49;102049.22;;;0.64;87.36
71770;BME280;66386;52.122;5.420;2023-04-26T04:55:15;102046.75;;;0.67;87.45
71770;BME280;66386;52.122;5.420;2023-04-26T04:57:42;102050.19;;;0.71;87.53
71770;BME280;66386;52.122;5.420;2023-04-26T05:00:09;102053.63;;;0.73;87.46
71770;BME280;66386;52.122;5.420;2023-04-26T05:02:36;102049.41;;;0.74;87.66
71770;BME280;66386;52.122;5.420;2023-04-26T05:05:03;102057.91;;;0.77;87.41
71770;BME280;66386;52.122;5.420;2023-04-26T05:07:31;102057.91;;;0.77;87.58
71770;BME280;66386;52.122;5.420;2023-04-26T05:09:58;102053.75;;;0.79;87.56
71770;BME280;66386;52.122;5.420;2023-04-26T05:12:25;102063.13;;;0.83;87.75
71770;BME280;66386;52.122;5.420;2023-04-26T05:14:51;102060.75;;;0.90;87.55
71770;BME280;66386;52.122;5.420;2023-04-26T05:17:18;102065.91;;;0.94;87.62
71770;BME280;66386;52.122;5.420;2023-04-26T05:19:45;102072.78;;;1.00;87.79
71770;BME280;66386;52.122;5.420;2023-04-26T05:22:11;102073.69;;;1.03;87.67
71770;BME280;66386;52.122;5.420;2023-04-26T05:24:46;102068.88;;;1.13;87.22
71770;BME280;66386;52.122;5.420;2023-04-26T05:27:13;102072.41;;;1.21;86.98
71770;BME280;66386;52.122;5.420;2023-04-26T05:29:40;102075.91;;;1.26;87.49
71770;BME280;66386;52.122;5.420;2023-04-26T05:32:07;102074.44;;;1.36;87.40
71770;BME280;66386;52.122;5.420;2023-04-26T05:34:34;102072.88;;;1.43;87.44
71770;BME280;66386;52.122;5.420;2023-04-26T05:37:00;102074.69;;;1.50;87.27
71770;BME280;66386;52.122;5.420;2023-04-26T05:39:26;102076.53;;;1.57;87.48
71770;BME280;66386;52.122;5.420;2023-04-26T05:41:53;102075.00;;;1.64;87.41
71770;BME280;66386;52.122;5.420;2023-04-26T05:44:19;102077.66;;;1.70;87.40
71770;BME280;66386;52.122;5.420;2023-04-26T05:46:46;102075.22;;;1.76;87.36
71770;BME280;66386;52.122;5.420;2023-04-26T05:49:13;102079.56;;;1.82;87.36
71770;BME280;66386;52.122;5.420;2023-04-26T05:51:39;102077.13;;;1.88;87.39
71770;BME280;66386;52.122;5.420;2023-04-26T05:54:06;102074.78;;;1.97;87.61
71770;BME280;66386;52.122;5.420;2023-04-26T05:56:32;102069.03;;;2.06;87.68
71770;BME280;66386;52.122;5.420;2023-04-26T05:58:59;102075.13;;;2.16;88.04
71770;BME280;66386;52.122;5.420;2023-04-26T06:01:25;102078.72;;;2.29;87.93
71770;BME280;66386;52.122;5.420;2023-04-26T06:03:52;102081.56;;;2.46;87.79
71770;BME280;66386;52.122;5.420;2023-04-26T06:06:24;102070.06;;;2.66;87.85
71770;BME280;66386;52.122;5.420;2023-04-26T06:08:53;102081.44;;;2.93;87.87
71770;BME280;66386;52.122;5.420;2023-04-26T06:11:20;102071.66;;;3.19;88.04
71770;BME280;66386;52.122;5.420;2023-04-26T06:13:47;102072.84;;;3.44;87.74
71770;BME280;66386;52.122;5.420;2023-04-26T06:16:13;102086.63;;;3.63;87.48
71770;BME280;66386;52.122;5.420;2023-04-26T06:18:40;102081.75;;;3.80;87.07
71770;BME280;66386;52.122;5.420;2023-04-26T06:21:07;102070.81;;;3.89;86.57
71770;BME280;66386;52.122;5.420;2023-04-26T06:23:33;102072.63;;;3.99;86.10
71770;BME280;66386;52.122;5.420;2023-04-26T06:26:00;102078.66;;;4.08;86.02
71770;BME280;66386;52.122;5.420;2023-04-26T06:28:26;102078.75;;;4.18;85.60
71770;BME280;66386;52.122;5.420;2023-04-26T06:30:52;102085.69;;;4.35;85.17
71770;BME280;66386;52.122;5.420;2023-04-26T06:33:19;102091.78;;;4.52;84.97
71770;BME280;66386;52.122;5.420;2023-04-26T06:35:45;102094.50;;;4.72;84.24
71770;BME280;66386;52.122;5.420;2023-04-26T06:38:12;102087.94;;;5.04;84.33
71770;BME280;66386;52.122;5.420;2023-04-26T06:40:38;102093.13;;;5.25;83.37
71770;BME280;66386;52.122;5.420;2023-04-26T06:43:05;102091.56;;;5.46;81.08
71770;BME280;66386;52.122;5.420;2023-04-26T06:45:31;102091.59;;;5.52;80.87
71770;BME280;66386;52.122;5.420;2023-04-26T06:47:58;102101.84;;;5.69;80.00
71770;BME280;66386;52.122;5.420;2023-04-26T06:50:26;102106.97;;;5.77;79.75
71770;BME280;66386;52.122;5.420;2023-04-26T06:52:53;102103.63;;;5.89;79.50
71770;BME280;66386;52.122;5.420;2023-04-26T06:55:19;102102.00;;;6.02;78.42
71770;BME280;66386;52.122;5.420;2023-04-26T06:57:46;102100.28;;;6.15;77.90
71770;BME280;66386;52.122;5.420;2023-04-26T07:00:13;102108.00;;;6.25;76.09
71770;BME280;66386;52.122;5.420;2023-04-26T07:02:39;102105.47;;;6.45;75.19
71770;BME280;66386;52.122;5.420;2023-04-26T07:05:07;102099.50;;;6.62;75.03
71770;BME280;66386;52.122;5.420;2023-04-26T07:07:34;102105.47;;;6.79;74.61
71770;BME280;66386;52.122;5.420;2023-04-26T07:10:02;102105.44;;;6.90;73.19
71770;BME280;66386;52.122;5.420;2023-04-26T07:12:28;102102.88;;;6.93;73.14
71770;BME280;66386;52.122;5.420;2023-04-26T07:14:55;102102.88;;;7.03;73.11
71770;BME280;66386;52.122;5.420;2023-04-26T07:17:21;102094.34;;;7.08;72.43
71770;BME280;66386;52.122;5.420;2023-04-26T07:19:47;102099.47;;;7.08;71.71
71770;BME280;66386;52.122;5.420;2023-04-26T07:22:14;102099.47;;;7.07;72.46
71770;BME280;66386;52.122;5.420;2023-04-26T07:24:40;102089.22;;;7.18;70.83
71770;BME280;66386;52.122;5.420;2023-04-26T07:27:07;102089.19;;;7.33;71.64
71770;BME280;66386;52.122;5.420;2023-04-26T07:29:33;102087.38;;;7.55;71.27
71770;BME280;66386;52.122;5.420;2023-04-26T07:32:00;102087.34;;;7.61;69.90
71770;BME280;66386;52.122;5.420;2023-04-26T07:34:26;102089.03;;;7.59;67.58
71770;BME280;66386;52.122;5.420;2023-04-26T07:36:53;102084.75;;;7.67;69.26
71770;BME280;66386;52.122;5.420;2023-04-26T07:39:19;102091.63;;;7.58;68.51
71770;BME280;66386;52.122;5.420;2023-04-26T07:41:45;102092.47;;;7.63;68.54
71770;BME280;66386;52.122;5.420;2023-04-26T07:44:15;102098.41;;;7.73;67.79
71770;BME280;66386;52.122;5.420;2023-04-26T07:46:41;102098.34;;;7.83;67.28
71770;BME280;66386;52.122;5.420;2023-04-26T07:49:08;102087.25;;;7.81;66.85
71770;BME280;66386;52.122;5.420;2023-04-26T07:51:35;102099.19;;;7.87;66.14
71770;BME280;66386;52.122;5.420;2023-04-26T07:54:02;102100.84;;;7.91;66.84
71770;BME280;66386;52.122;5.420;2023-04-26T07:56:28;102102.66;;;7.72;67.12
71770;BME280;66386;52.122;5.420;2023-04-26T07:58:55;102105.25;;;7.63;65.27
71770;BME280;66386;52.122;5.420;2023-04-26T08:01:21;102111.25;;;7.54;66.36
71770;BME280;66386;52.122;5.420;2023-04-26T08:03:47;102116.34;;;7.59;64.77
71770;BME280;66386;52.122;5.420;2023-04-26T08:06:15;102119.69;;;7.75;65.61
71770;BME280;66386;52.122;5.420;2023-04-26T08:08:42;102111.88;;;8.06;64.12
71770;BME280;66386;52.122;5.420;2023-04-26T08:11:10;102117.59;;;8.46;63.28
71770;BME280;66386;52.122;5.420;2023-04-26T08:13:37;102109.06;;;8.47;63.91
71770;BME280;66386;52.122;5.420;2023-04-26T08:16:04;102112.34;;;8.65;60.55
71770;BME280;66386;52.122;5.420;2023-04-26T08:18:31;102112.28;;;8.71;59.72
71770;BME280;66386;52.122;5.420;2023-04-26T08:20:57;102101.91;;;8.88;58.32
71770;BME280;66386;52.122;5.420;2023-04-26T08:23:24;102106.03;;;9.03;56.99
71770;BME280;66386;52.122;5.420;2023-04-26T08:25:50;102107.91;;;8.85;55.89
71770;BME280;66386;52.122;5.420;2023-04-26T08:28:17;102109.81;;;8.63;56.82
71770;BME280;66386;52.122;5.420;2023-04-26T08:30:43;102115.81;;;8.59;58.22
71770;BME280;66386;52.122;5.420;2023-04-26T08:33:10;102114.19;;;8.43;56.67
71770;BME280;66386;52.122;5.420;2023-04-26T08:35:36;102115.97;;;8.31;59.55
71770;BME280;66386;52.122;5.420;2023-04-26T08:38:03;102107.44;;;8.29;59.04
71770;BME280;66386;52.122;5.420;2023-04-26T08:40:29;102112.63;;;8.21;58.58
71770;BME280;66386;52.122;5.420;2023-04-26T08:42:57;102116.97;;;8.09;59.66
71770;BME280;66386;52.122;5.420;2023-04-26T08:45:23;102108.53;;;7.96;59.88
71770;BME280;66386;52.122;5.420;2023-04-26T08:47:52;102104.28;;;7.84;59.68
71770;BME280;66386;52.122;5.420;2023-04-26T08:50:20;102108.63;;;7.74;60.34
71770;BME280;66386;52.122;5.420;2023-04-26T08:52:49;102111.19;;;7.76;62.09
71770;BME280;66386;52.122;5.420;2023-04-26T08:55:17;102113.72;;;7.80;61.81
71770;BME280;66386;52.122;5.420;2023-04-26T08:57:46;102113.72;;;7.79;61.75
71770;BME280;66386;52.122;5.420;2023-04-26T09:00:14;102120.53;;;7.75;61.85
71770;BME280;66386;52.122;5.420;2023-04-26T09:02:46;102116.31;;;7.73;61.51
71770;BME280;66386;52.122;5.420;2023-04-26T09:05:13;102112.91;;;7.64;62.51
71770;BME280;66386;52.122;5.420;2023-04-26T09:07:42;102115.53;;;7.55;62.79
71770;BME280;66386;52.122;5.420;2023-04-26T09:10:10;102113.00;;;7.50;63.43
71770;BME280;66386;52.122;5.420;2023-04-26T09:12:38;102110.41;;;7.49;63.80
71770;BME280;66386;52.122;5.420;2023-04-26T09:15:05;102104.47;;;7.45;63.24
71770;BME280;66386;52.122;5.420;2023-04-26T09:17:37;102101.91;;;7.47;63.94
71770;BME280;66386;52.122;5.420;2023-04-26T09:20:21;102104.41;;;7.58;64.01
71770;BME280;66386;52.122;5.420;2023-04-26T09:23:05;102109.50;;;7.70;63.83
71770;BME280;66386;52.122;5.420;2023-04-26T09:25:32;102112.06;;;7.67;62.29
71770;BME280;66386;52.122;5.420;2023-04-26T09:27:59;102115.44;;;7.75;62.46
71770;BME280;66386;52.122;5.420;2023-04-26T09:30:27;102116.28;;;7.76;61.86
71770;BME280;66386;52.122;5.420;2023-04-26T09:32:57;102111.13;;;7.83;61.61
71770;BME280;66386;52.122;5.420;2023-04-26T09:35:26;102116.13;;;8.07;61.68
71770;BME280;66386;52.122;5.420;2023-04-26T09:37:57;102113.47;;;8.27;61.21
71770;BME280;66386;52.122;5.420;2023-04-26T09:40:49;102121.13;;;8.28;59.78
71770;BME280;66386;52.122;5.420;2023-04-26T09:43:20;102115.97;;;8.34;60.72
71770;BME280;66386;52.122;5.420;2023-04-26T09:45:56;102115.03;;;8.48;60.71
71770;BME280;66386;52.122;5.420;2023-04-26T09:48:28;102114.09;;;8.60;60.38
71770;BME280;66386;52.122;5.420;2023-04-26T09:53:30;102113.81;;;8.90;58.19
71770;BME280;66386;52.122;5.420;2023-04-26T09:56:07;102104.25;;;9.06;57.94
71770;BME280;66386;52.122;5.420;2023-04-26T09:58:57;102104.28;;;9.03;57.23
71770;BME280;66386;52.122;5.420;2023-04-26T10:01:27;102107.56;;;9.18;56.28
71770;BME280;66386;52.122;5.420;2023-04-26T10:03:56;102103.97;;;9.33;56.73
71770;BME280;66386;52.122;5.420;2023-04-26T10:06:26;102101.34;;;9.40;56.67
71770;BME280;66386;52.122;5.420;2023-04-26T10:08:53;102107.28;;;9.44;55.68
71770;BME280;66386;52.122;5.420;2023-04-26T10:11:20;102105.53;;;9.48;55.84
71770;BME280;66386;52.122;5.420;2023-04-26T10:13:49;102095.94;;;9.62;53.73
71770;BME280;66386;52.122;5.420;2023-04-26T10:16:17;102101.16;;;9.54;52.56
71770;BME280;66386;52.122;5.420;2023-04-26T10:18:46;102096.91;;;9.52;53.08
71770;BME280;66386;52.122;5.420;2023-04-26T10:21:26;102088.03;;;9.77;52.23
71770;BME280;66386;52.122;5.420;2023-04-26T10:23:53;102100.69;;;9.90;52.27
71770;BME280;66386;52.122;5.420;2023-04-26T10:26:54;102104.84;;;10.00;52.50
71770;BME280;66386;52.122;5.420;2023-04-26T10:30:03;102095.44;;;10.01;48.93
71770;BME280;66386;52.122;5.420;2023-04-26T10:32:12;102100.78;;;9.84;52.69
71770;BME280;66386;52.122;5.420;2023-04-26T10:34:43;102096.56;;;9.79;52.48
71770;BME280;66386;52.122;5.420;2023-04-26T10:37:14;102097.38;;;9.83;52.03
71770;BME280;66386;52.122;5.420;2023-04-26T10:39:45;102098.50;;;9.62;51.84
71770;BME280;66386;52.122;5.420;2023-04-26T10:44:58;102100.47;;;9.41;51.67
71770;BME280;66386;52.122;5.420;2023-04-26T10:50:02;102101.44;;;9.31;53.89
71770;BME280;66386;52.122;5.420;2023-04-26T10:52:31;102098.88;;;9.30;53.63
71770;BME280;66386;52.122;5.420;2023-04-26T10:54:58;102098.03;;;9.31;55.27
71770;BME280;66386;52.122;5.420;2023-04-26T10:57:52;102093.66;;;9.37;53.75
71770;BME280;66386;52.122;5.420;2023-04-26T11:00:26;102095.28;;;9.46;52.59
71770;BME280;66386;52.122;5.420;2023-04-26T11:03:01;102099.44;;;9.56;52.64
71770;BME280;66386;52.122;5.420;2023-04-26T11:05:51;102094.88;;;9.80;52.34
71770;BME280;66386;52.122;5.420;2023-04-26T11:08:20;102095.56;;;9.93;52.62
71770;BME280;66386;52.122;5.420;2023-04-26T11:11:04;102101.41;;;10.01;53.08
71770;BME280;66386;52.122;5.420;2023-04-26T11:13:34;102098.97;;;9.92;53.42
71770;BME280;66386;52.122;5.420;2023-04-26T11:16:11;102097.91;;;10.07;52.14
71770;BME280;66386;52.122;5.420;2023-04-26T11:18:46;102088.53;;;10.04;50.90
71770;BME280;66386;52.122;5.420;2023-04-26T11:21:12;102082.31;;;10.19;51.66
71770;BME280;66386;52.122;5.420;2023-04-26T11:23:52;102082.19;;;10.27;50.23
71770;BME280;66386;52.122;5.420;2023-04-26T11:26:19;102079.59;;;10.28;49.53
71770;BME280;66386;52.122;5.420;2023-04-26T11:28:47;102076.16;;;10.31;49.78
71770;BME280;66386;52.122;5.420;2023-04-26T11:31:14;102074.50;;;10.27;49.31
71770;BME280;66386;52.122;5.420;2023-04-26T11:33:40;102076.88;;;10.39;50.72
71770;BME280;66386;52.122;5.420;2023-04-26T11:36:07;102084.31;;;10.58;49.73
71770;BME280;66386;52.122;5.420;2023-04-26T11:38:33;102074.25;;;10.45;49.26
71770;BME280;66386;52.122;5.420;2023-04-26T11:41:01;102075.09;;;10.44;51.23
71770;BME280;66386;52.122;5.420;2023-04-26T11:43:35;102075.88;;;10.48;50.86
71770;BME280;66386;52.122;5.420;2023-04-26T11:46:03;102069.91;;;10.47;50.84
71770;BME280;66386;52.122;5.420;2023-04-26T11:48:31;102077.34;;;10.63;50.54
71770;BME280;66386;52.122;5.420;2023-04-26T11:50:59;102075.38;;;11.24;51.51
71770;BME280;66386;52.122;5.420;2023-04-26T11:53:38;102073.56;;;11.72;47.64
71770;BME280;66386;52.122;5.420;2023-04-26T11:56:16;102070.53;;;11.93;46.41
71770;BME280;66386;52.122;5.420;2023-04-26T11:58:47;102068.94;;;11.86;47.12
71770;BME280;66386;52.122;5.420;2023-04-26T12:01:24;102075.31;;;12.09;47.58
71770;BME280;66386;52.122;5.420;2023-04-26T12:03:52;102073.53;;;12.47;46.73
71770;BME280;66386;52.122;5.420;2023-04-26T12:06:25;102062.22;;;12.52;49.01
71770;BME280;66386;52.122;5.420;2023-04-26T12:08:55;102071.53;;;12.23;47.23
71770;BME280;66386;52.122;5.420;2023-04-26T12:11:21;102071.81;;;11.72;46.52
71770;BME280;66386;52.122;5.420;2023-04-26T12:13:48;102079.34;;;11.41;47.05
71770;BME280;66386;52.122;5.420;2023-04-26T12:16:14;102072.31;;;11.05;48.56
71770;BME280;66386;52.122;5.420;2023-04-26T12:18:52;102070.84;;;10.92;47.06
71770;BME280;66386;52.122;5.420;2023-04-26T12:21:19;102078.88;;;10.75;46.68
71770;BME280;66386;52.122;5.420;2023-04-26T12:23:46;102079.25;;;10.53;46.45
71770;BME280;66386;52.122;5.420;2023-04-26T12:26:14;102080.44;;;10.29;48.36
71770;BME280;66386;52.122;5.420;2023-04-26T12:28:41;102086.66;;;10.16;49.33
71770;BME280;66386;52.122;5.420;2023-04-26T12:31:07;102082.63;;;9.99;50.71
71770;BME280;66386;52.122;5.420;2023-04-26T12:33:34;102089.53;;;9.94;51.88
71770;BME280;66386;52.122;5.420;2023-04-26T12:36:08;102087.03;;;9.88;51.66
71770;BME280;66386;52.122;5.420;2023-04-26T12:38:35;102086.13;;;9.92;51.32
71770;BME280;66386;52.122;5.420;2023-04-26T12:41:03;102091.22;;;9.95;51.74
71770;BME280;66386;52.122;5.420;2023-04-26T12:43:29;102086.00;;;10.01;50.65
71770;BME280;66386;52.122;5.420;2023-04-26T12:45:55;102088.84;;;9.79;51.24
71770;BME280;66386;52.122;5.420;2023-04-26T12:48:22;102085.53;;;9.73;51.53
71770;BME280;66386;52.122;5.420;2023-04-26T12:50:49;102092.41;;;9.69;52.09
71770;BME280;66386;52.122;5.420;2023-04-26T12:53:16;102088.00;;;9.81;52.01
71770;BME280;66386;52.122;5.420;2023-04-26T12:55:43;102082.63;;;9.99;52.20
71770;BME280;66386;52.122;5.420;2023-04-26T12:58:10;102079.75;;;10.18;51.44
71770;BME280;66386;52.122;5.420;2023-04-26T13:00:37;102071.81;;;10.33;51.42
71770;BME280;66386;52.122;5.420;2023-04-26T13:03:03;102076.88;;;10.39;50.36
71770;BME280;66386;52.122;5.420;2023-04-26T13:05:30;102074.16;;;10.50;51.14
71770;BME280;66386;52.122;5.420;2023-04-26T13:07:57;102084.91;;;10.72;50.50
71770;BME280;66386;52.122;5.420;2023-04-26T13:10:27;102089.06;;;10.81;50.34
71770;BME280;66386;52.122;5.420;2023-04-26T13:12:53;102083.06;;;10.79;49.58